sensor_id;sensor_type;location;lat;lon;timestamp;P1;durP1;ratioP1;P2;durP2;ratioP2
17741;SDS011;8993;51.822;-2.268;2023-04-15T00:00:46;4.39;;;3.00;;
17741;SDS011;8993;51.822;-2.268;2023-04-15T00:05:51;4.19;;;2.56;;
17741;SDS011;8993;51.822;-2.268;2023-04-15T00:10:58;4.38;;;2.68;;
17741;SDS011;8993;51.822;-2.268;2023-04-15T00:16:03;4.41;;;2.89;;
17741;SDS011;8993;51.822;-2.268;2023-04-15T00:21:10;4.65;;;2.98;;
17741;SDS011;8993;51.822;-2.268;2023-04-15T00:26:14;5.81;;;3.87;;
17741;SDS011;8993;51.822;-2.268;2023-04-15T00:31:19;5.40;;;4.01;;
17741;SDS011;8993;51.822;-2.268;2023-04-15T00:36:23;8.11;;;5.27;;
17741;SDS011;8993;51.822;-2.268;2023-04-15T00:41:28;10.24;;;6.88;;
17741;SDS011;8993;51.822;-2.268;2023-04-15T00:46:34;27.48;;;14.54;;
17741;SDS011;8993;51.822;-2.268;2023-04-15T00:51:37;42.24;;;19.40;;
17741;SDS011;8993;51.822;-2.268;2023-04-15T00:56:42;70.70;;;28.06;;
17741;SDS011;8993;51.822;-2.268;2023-04-15T01:01:47;27.88;;;15.96;;
17741;SDS011;8993;51.822;-2.268;2023-04-15T01:06:52;21.50;;;13.02;;
17741;SDS011;8993;51.822;-2.268;2023-04-15T01:11:56;18.61;;;10.72;;
17741;SDS011;8993;51.822;-2.268;2023-04-15T01:17:01;20.59;;;12.36;;
17741;SDS011;8993;51.822;-2.268;2023-04-15T01:22:05;22.65;;;12.99;;
17741;SDS011;8993;51.822;-2.268;2023-04-15T01:27:10;16.62;;;10.27;;
17741;SDS011;8993;51.822;-2.268;2023-04-15T01:32:17;16.27;;;9.98;;
17741;SDS011;8993;51.822;-2.268;2023-04-15T01:37:22;14.43;;;9.02;;
17741;SDS011;8993;51.822;-2.268;2023-04-15T01:42:27;13.63;;;8.73;;
17741;SDS011;8993;51.822;-2.268;2023-04-15T01:47:31;16.85;;;10.08;;
17741;SDS011;8993;51.822;-2.268;2023-04-15T01:52:36;15.78;;;9.13;;
17741;SDS011;8993;51.822;-2.268;2023-04-15T01:57:40;18.17;;;11.22;;
17741;SDS011;8993;51.822;-2.268;2023-04-15T02:02:45;16.44;;;10.25;;
17741;SDS011;8993;51.822;-2.268;2023-04-15T02:07:50;11.78;;;7.89;;
17741;SDS011;8993;51.822;-2.268;2023-04-15T02:12:55;12.95;;;8.35;;
17741;SDS011;8993;51.822;-2.268;2023-04-15T02:18:00;13.25;;;8.57;;
17741;SDS011;8993;51.822;-2.268;2023-04-15T02:23:04;14.05;;;9.09;;
17741;SDS011;8993;51.822;-2.268;2023-04-15T02:28:08;13.21;;;9.09;;
17741;SDS011;8993;51.822;-2.268;2023-04-15T02:33:13;14.16;;;9.04;;
17741;SDS011;8993;51.822;-2.268;2023-04-15T02:38:17;13.28;;;8.35;;
17741;SDS011;8993;51.822;-2.268;2023-04-15T02:43:22;12.60;;;9.25;;
17741;SDS011;8993;51.822;-2.268;2023-04-15T02:48:26;12.75;;;8.07;;
17741;SDS011;8993;51.822;-2.268;2023-04-15T02:53:31;13.61;;;8.61;;
17741;SDS011;8993;51.822;-2.268;2023-04-15T02:58:35;12.07;;;8.53;;
17741;SDS011;8993;51.822;-2.268;2023-04-15T03:03:39;12.56;;;8.72;;
17741;SDS011;8993;51.822;-2.268;2023-04-15T03:08:44;15.63;;;10.06;;
17741;SDS011;8993;51.822;-2.268;2023-04-15T03:13:48;12.36;;;9.03;;
17741;SDS011;8993;51.822;-2.268;2023-04-15T03:18:53;15.28;;;9.61;;
17741;SDS011;8993;51.822;-2.268;2023-04-15T03:23:57;14.39;;;10.04;;
17741;SDS011;8993;51.822;-2.268;2023-04-15T03:29:03;19.62;;;11.72;;
17741;SDS011;8993;51.822;-2.268;2023-04-15T03:34:08;17.01;;;11.50;;
17741;SDS011;8993;51.822;-2.268;2023-04-15T03:39:12;17.55;;;11.05;;
17741;SDS011;8993;51.822;-2.268;2023-04-15T03:44:17;13.76;;;9.36;;
17741;SDS011;8993;51.822;-2.268;2023-04-15T03:49:21;14.97;;;9.41;;
17741;SDS011;8993;51.822;-2.268;2023-04-15T03:54:27;16.86;;;9.21;;
17741;SDS011;8993;51.822;-2.268;2023-04-15T03:59:31;12.80;;;8.36;;
17741;SDS011;8993;51.822;-2.268;2023-04-15T04:04:35;13.81;;;9.13;;
17741;SDS011;8993;51.822;-2.268;2023-04-15T04:09:40;13.16;;;8.46;;
17741;SDS011;8993;51.822;-2.268;2023-04-15T04:14:44;13.63;;;8.16;;
17741;SDS011;8993;51.822;-2.268;2023-04-15T04:19:49;13.05;;;8.58;;
17741;SDS011;8993;51.822;-2.268;2023-04-15T04:35:08;19.13;;;11.04;;
17741;SDS011;8993;51.822;-2.268;2023-04-15T04:40:13;14.60;;;8.88;;
17741;SDS011;8993;51.822;-2.268;2023-04-15T04:45:17;13.46;;;7.66;;
17741;SDS011;8993;51.822;-2.268;2023-04-15T04:50:22;12.22;;;8.18;;
17741;SDS011;8993;51.822;-2.268;2023-04-15T04:55:26;14.41;;;8.50;;
17741;SDS011;8993;51.822;-2.268;2023-04-15T05:00:31;15.14;;;7.96;;
17741;SDS011;8993;51.822;-2.268;2023-04-15T05:05:35;12.84;;;7.80;;
17741;SDS011;8993;51.822;-2.268;2023-04-15T05:10:40;14.71;;;8.20;;
17741;SDS011;8993;51.822;-2.268;2023-04-15T05:15:44;15.06;;;8.45;;
17741;SDS011;8993;51.822;-2.268;2023-04-15T05:25:52;21.82;;;10.86;;
17741;SDS011;8993;51.822;-2.268;2023-04-15T05:30:56;27.54;;;12.79;;
17741;SDS011;8993;51.822;-2.268;2023-04-15T05:36:00;23.38;;;12.15;;
17741;SDS011;8993;51.822;-2.268;2023-04-15T05:41:05;22.43;;;11.31;;
17741;SDS011;8993;51.822;-2.268;2023-04-15T05:46:09;23.35;;;11.58;;
17741;SDS011;8993;51.822;-2.268;2023-04-15T05:51:13;19.49;;;10.52;;
17741;SDS011;8993;51.822;-2.268;2023-04-15T05:56:17;21.01;;;10.88;;
17741;SDS011;8993;51.822;-2.268;2023-04-15T06:01:21;18.86;;;10.54;;
17741;SDS011;8993;51.822;-2.268;2023-04-15T06:06:25;16.41;;;9.29;;
17741;SDS011;8993;51.822;-2.268;2023-04-15T06:11:29;15.46;;;8.68;;
17741;SDS011;8993;51.822;-2.268;2023-04-15T06:16:33;18.13;;;10.13;;
17741;SDS011;8993;51.822;-2.268;2023-04-15T06:21:41;16.68;;;8.31;;
17741;SDS011;8993;51.822;-2.268;2023-04-15T06:26:46;14.91;;;8.09;;
17741;SDS011;8993;51.822;-2.268;2023-04-15T06:31:52;14.72;;;7.73;;
17741;SDS011;8993;51.822;-2.268;2023-04-15T06:36:57;18.85;;;7.84;;
17741;SDS011;8993;51.822;-2.268;2023-04-15T06:42:02;16.43;;;6.38;;
17741;SDS011;8993;51.822;-2.268;2023-04-15T06:47:06;11.37;;;5.32;;
17741;SDS011;8993;51.822;-2.268;2023-04-15T06:52:11;12.44;;;4.98;;
17741;SDS011;8993;51.822;-2.268;2023-04-15T06:57:15;11.93;;;4.87;;
17741;SDS011;8993;51.822;-2.268;2023-04-15T07:02:20;10.86;;;4.70;;
17741;SDS011;8993;51.822;-2.268;2023-04-15T07:07:24;12.19;;;4.36;;
17741;SDS011;8993;51.822;-2.268;2023-04-15T07:12:31;9.56;;;3.58;;
17741;SDS011;8993;51.822;-2.268;2023-04-15T07:17:35;9.61;;;3.65;;
17741;SDS011;8993;51.822;-2.268;2023-04-15T07:22:39;10.08;;;3.48;;
17741;SDS011;8993;51.822;-2.268;2023-04-15T07:27:44;9.68;;;3.75;;
17741;SDS011;8993;51.822;-2.268;2023-04-15T07:37:50;8.32;;;3.74;;
17741;SDS011;8993;51.822;-2.268;2023-04-15T07:42:55;11.04;;;3.71;;
17741;SDS011;8993;51.822;-2.268;2023-04-15T07:47:59;10.52;;;3.65;;
17741;SDS011;8993;51.822;-2.268;2023-04-15T07:53:03;12.30;;;4.27;;
17741;SDS011;8993;51.822;-2.268;2023-04-15T07:58:10;11.82;;;3.98;;
17741;SDS011;8993;51.822;-2.268;2023-04-15T08:03:15;10.68;;;4.51;;
17741;SDS011;8993;51.822;-2.268;2023-04-15T08:08:19;13.55;;;5.61;;
17741;SDS011;8993;51.822;-2.268;2023-04-15T08:18:29;17.38;;;7.46;;
17741;SDS011;8993;51.822;-2.268;2023-04-15T08:23:36;16.33;;;7.30;;
17741;SDS011;8993;51.822;-2.268;2023-04-15T08:28:41;15.01;;;6.61;;
17741;SDS011;8993;51.822;-2.268;2023-04-15T08:33:46;14.15;;;6.77;;
17741;SDS011;8993;51.822;-2.268;2023-04-15T08:38:50;15.60;;;8.26;;
17741;SDS011;8993;51.822;-2.268;2023-04-15T08:43:56;19.05;;;10.30;;
17741;SDS011;8993;51.822;-2.268;2023-04-15T08:49:02;22.86;;;11.49;;
17741;SDS011;8993;51.822;-2.268;2023-04-15T08:54:07;24.60;;;12.37;;
17741;SDS011;8993;51.822;-2.268;2023-04-15T08:59:11;24.34;;;11.95;;
17741;SDS011;8993;51.822;-2.268;2023-04-15T09:04:16;14.77;;;8.28;;
17741;SDS011;8993;51.822;-2.268;2023-04-15T09:09:20;12.85;;;6.49;;
17741;SDS011;8993;51.822;-2.268;2023-04-15T09:14:25;13.80;;;5.85;;
17741;SDS011;8993;51.822;-2.268;2023-04-15T09:19:30;11.67;;;5.27;;
17741;SDS011;8993;51.822;-2.268;2023-04-15T09:24:35;10.58;;;5.84;;
17741;SDS011;8993;51.822;-2.268;2023-04-15T09:29:40;10.42;;;4.05;;
17741;SDS011;8993;51.822;-2.268;2023-04-15T09:34:43;7.19;;;3.64;;
17741;SDS011;8993;51.822;-2.268;2023-04-15T09:39:49;10.36;;;3.98;;
17741;SDS011;8993;51.822;-2.268;2023-04-15T09:44:53;10.74;;;4.51;;
17741;SDS011;8993;51.822;-2.268;2023-04-15T09:49:58;10.39;;;3.99;;
17741;SDS011;8993;51.822;-2.268;2023-04-15T09:55:02;11.20;;;4.62;;
17741;SDS011;8993;51.822;-2.268;2023-04-15T10:00:10;9.31;;;3.96;;
17741;SDS011;8993;51.822;-2.268;2023-04-15T10:05:14;9.05;;;3.51;;
17741;SDS011;8993;51.822;-2.268;2023-04-15T10:10:19;9.06;;;3.45;;
17741;SDS011;8993;51.822;-2.268;2023-04-15T10:15:23;7.54;;;3.31;;
17741;SDS011;8993;51.822;-2.268;2023-04-15T10:20:28;6.82;;;2.59;;
17741;SDS011;8993;51.822;-2.268;2023-04-15T10:25:33;6.70;;;2.76;;
17741;SDS011;8993;51.822;-2.268;2023-04-15T10:30:37;5.41;;;2.46;;
17741;SDS011;8993;51.822;-2.268;2023-04-15T10:35:42;5.25;;;2.27;;
17741;SDS011;8993;51.822;-2.268;2023-04-15T10:40:47;5.77;;;2.28;;
17741;SDS011;8993;51.822;-2.268;2023-04-15T10:45:52;6.35;;;2.32;;
17741;SDS011;8993;51.822;-2.268;2023-04-15T10:50:57;4.41;;;2.00;;
17741;SDS011;8993;51.822;-2.268;2023-04-15T10:56:04;4.42;;;1.91;;
17741;SDS011;8993;51.822;-2.268;2023-04-15T11:01:09;5.29;;;2.29;;
17741;SDS011;8993;51.822;-2.268;2023-04-15T11:06:14;5.58;;;2.43;;
17741;SDS011;8993;51.822;-2.268;2023-04-15T11:11:18;3.87;;;2.00;;
17741;SDS011;8993;51.822;-2.268;2023-04-15T11:16:24;4.51;;;1.97;;
17741;SDS011;8993;51.822;-2.268;2023-04-15T11:21:30;5.05;;;1.90;;
17741;SDS011;8993;51.822;-2.268;2023-04-15T11:26:35;5.31;;;2.34;;
17741;SDS011;8993;51.822;-2.268;2023-04-15T11:31:41;3.72;;;1.78;;
17741;SDS011;8993;51.822;-2.268;2023-04-15T11:36:45;4.27;;;1.58;;
17741;SDS011;8993;51.822;-2.268;2023-04-15T11:41:50;4.73;;;1.82;;
17741;SDS011;8993;51.822;-2.268;2023-04-15T11:46:58;4.21;;;1.84;;
17741;SDS011;8993;51.822;-2.268;2023-04-15T11:52:09;4.09;;;1.59;;
17741;SDS011;8993;51.822;-2.268;2023-04-15T11:57:03;4.26;;;1.51;;
17741;SDS011;8993;51.822;-2.268;2023-04-15T12:02:10;2.90;;;1.43;;
17741;SDS011;8993;51.822;-2.268;2023-04-15T12:07:13;4.71;;;1.61;;
17741;SDS011;8993;51.822;-2.268;2023-04-15T12:12:17;3.81;;;1.55;;
17741;SDS011;8993;51.822;-2.268;2023-04-15T12:17:25;4.37;;;1.88;;
17741;SDS011;8993;51.822;-2.268;2023-04-15T12:22:32;2.84;;;1.64;;
17741;SDS011;8993;51.822;-2.268;2023-04-15T12:27:40;2.94;;;1.45;;
17741;SDS011;8993;51.822;-2.268;2023-04-15T12:32:47;3.08;;;1.49;;
17741;SDS011;8993;51.822;-2.268;2023-04-15T12:37:52;2.57;;;1.10;;
17741;SDS011;8993;51.822;-2.268;2023-04-15T12:42:59;1.62;;;0.91;;
17741;SDS011;8993;51.822;-2.268;2023-04-15T12:48:04;1.36;;;0.74;;
17741;SDS011;8993;51.822;-2.268;2023-04-15T12:53:08;2.05;;;0.94;;
17741;SDS011;8993;51.822;-2.268;2023-04-15T12:58:13;3.19;;;1.01;;
17741;SDS011;8993;51.822;-2.268;2023-04-15T13:03:18;3.75;;;1.27;;
17741;SDS011;8993;51.822;-2.268;2023-04-15T13:08:23;2.64;;;1.30;;
17741;SDS011;8993;51.822;-2.268;2023-04-15T13:13:28;3.00;;;1.25;;
17741;SDS011;8993;51.822;-2.268;2023-04-15T13:18:33;2.04;;;1.07;;
17741;SDS011;8993;51.822;-2.268;2023-04-15T13:23:40;2.41;;;1.18;;
17741;SDS011;8993;51.822;-2.268;2023-04-15T13:28:44;1.59;;;0.99;;
17741;SDS011;8993;51.822;-2.268;2023-04-15T13:33:49;1.91;;;1.04;;
17741;SDS011;8993;51.822;-2.268;2023-04-15T13:38:55;4.11;;;1.13;;
17741;SDS011;8993;51.822;-2.268;2023-04-15T13:44:02;2.28;;;1.04;;
17741;SDS011;8993;51.822;-2.268;2023-04-15T13:49:09;2.78;;;0.95;;
17741;SDS011;8993;51.822;-2.268;2023-04-15T13:54:14;3.90;;;0.90;;
17741;SDS011;8993;51.822;-2.268;2023-04-15T13:59:19;2.98;;;1.19;;
17741;SDS011;8993;51.822;-2.268;2023-04-15T14:04:24;2.88;;;1.04;;
17741;SDS011;8993;51.822;-2.268;2023-04-15T14:09:29;2.03;;;1.01;;
17741;SDS011;8993;51.822;-2.268;2023-04-15T14:14:33;1.70;;;1.00;;
17741;SDS011;8993;51.822;-2.268;2023-04-15T14:19:38;2.08;;;0.77;;
17741;SDS011;8993;51.822;-2.268;2023-04-15T14:24:43;1.83;;;0.87;;
17741;SDS011;8993;51.822;-2.268;2023-04-15T14:29:47;1.64;;;0.77;;
17741;SDS011;8993;51.822;-2.268;2023-04-15T14:34:52;2.07;;;0.84;;
17741;SDS011;8993;51.822;-2.268;2023-04-15T14:39:57;2.44;;;0.88;;
17741;SDS011;8993;51.822;-2.268;2023-04-15T14:45:05;2.61;;;0.88;;
17741;SDS011;8993;51.822;-2.268;2023-04-15T14:50:09;1.87;;;0.85;;
17741;SDS011;8993;51.822;-2.268;2023-04-15T14:55:13;2.37;;;0.81;;
17741;SDS011;8993;51.822;-2.268;2023-04-15T15:00:19;1.78;;;0.66;;
17741;SDS011;8993;51.822;-2.268;2023-04-15T15:05:23;1.26;;;0.66;;
17741;SDS011;8993;51.822;-2.268;2023-04-15T15:10:27;1.43;;;0.65;;
17741;SDS011;8993;51.822;-2.268;2023-04-15T15:15:32;1.84;;;0.64;;
17741;SDS011;8993;51.822;-2.268;2023-04-15T15:20:37;1.50;;;0.52;;
17741;SDS011;8993;51.822;-2.268;2023-04-15T15:25:42;1.62;;;0.53;;
17741;SDS011;8993;51.822;-2.268;2023-04-15T15:30:47;1.36;;;0.49;;
17741;SDS011;8993;51.822;-2.268;2023-04-15T15:35:51;1.99;;;0.48;;
17741;SDS011;8993;51.822;-2.268;2023-04-15T15:40:55;1.34;;;0.47;;
17741;SDS011;8993;51.822;-2.268;2023-04-15T15:46:00;1.62;;;0.52;;
17741;SDS011;8993;51.822;-2.268;2023-04-15T15:51:04;1.81;;;0.52;;
17741;SDS011;8993;51.822;-2.268;2023-04-15T15:56:08;1.44;;;0.68;;
17741;SDS011;8993;51.822;-2.268;2023-04-15T16:01:13;1.77;;;0.53;;
17741;SDS011;8993;51.822;-2.268;2023-04-15T16:06:17;1.13;;;0.48;;
17741;SDS011;8993;51.822;-2.268;2023-04-15T16:11:22;1.89;;;0.54;;
17741;SDS011;8993;51.822;-2.268;2023-04-15T16:16:27;1.66;;;0.49;;
17741;SDS011;8993;51.822;-2.268;2023-04-15T16:21:31;1.29;;;0.53;;
17741;SDS011;8993;51.822;-2.268;2023-04-15T16:26:36;1.23;;;0.57;;
17741;SDS011;8993;51.822;-2.268;2023-04-15T16:31:40;1.27;;;0.59;;
17741;SDS011;8993;51.822;-2.268;2023-04-15T16:36:44;1.39;;;0.59;;
17741;SDS011;8993;51.822;-2.268;2023-04-15T16:41:50;1.22;;;0.66;;
17741;SDS011;8993;51.822;-2.268;2023-04-15T16:46:55;1.85;;;0.64;;
17741;SDS011;8993;51.822;-2.268;2023-04-15T16:52:00;1.46;;;0.53;;
17741;SDS011;8993;51.822;-2.268;2023-04-15T16:57:04;1.23;;;0.44;;
17741;SDS011;8993;51.822;-2.268;2023-04-15T17:02:11;1.23;;;0.52;;
17741;SDS011;8993;51.822;-2.268;2023-04-15T17:07:15;0.66;;;0.43;;
17741;SDS011;8993;51.822;-2.268;2023-04-15T17:12:20;1.62;;;0.55;;
17741;SDS011;8993;51.822;-2.268;2023-04-15T17:17:27;1.25;;;0.57;;
17741;SDS011;8993;51.822;-2.268;2023-04-15T17:22:31;1.38;;;0.56;;
17741;SDS011;8993;51.822;-2.268;2023-04-15T17:27:36;1.23;;;0.59;;
17741;SDS011;8993;51.822;-2.268;2023-04-15T17:32:41;2.70;;;1.00;;
17741;SDS011;8993;51.822;-2.268;2023-04-15T17:37:47;4.91;;;2.42;;
17741;SDS011;8993;51.822;-2.268;2023-04-15T17:42:52;1.71;;;0.66;;
17741;SDS011;8993;51.822;-2.268;2023-04-15T17:47:56;1.84;;;0.61;;
17741;SDS011;8993;51.822;-2.268;2023-04-15T17:53:01;1.50;;;0.52;;
17741;SDS011;8993;51.822;-2.268;2023-04-15T17:58:06;1.50;;;0.59;;
17741;SDS011;8993;51.822;-2.268;2023-04-15T18:03:10;1.44;;;0.75;;
17741;SDS011;8993;51.822;-2.268;2023-04-15T18:08:15;1.42;;;0.74;;
17741;SDS011;8993;51.822;-2.268;2023-04-15T18:13:20;1.29;;;0.77;;
17741;SDS011;8993;51.822;-2.268;2023-04-15T18:18:24;1.37;;;0.72;;
17741;SDS011;8993;51.822;-2.268;2023-04-15T18:23:29;2.17;;;0.88;;
17741;SDS011;8993;51.822;-2.268;2023-04-15T18:28:33;1.58;;;0.69;;
17741;SDS011;8993;51.822;-2.268;2023-04-15T18:33:38;1.90;;;0.74;;
17741;SDS011;8993;51.822;-2.268;2023-04-15T18:38:43;1.28;;;0.62;;
17741;SDS011;8993;51.822;-2.268;2023-04-15T18:43:47;1.69;;;0.50;;
17741;SDS011;8993;51.822;-2.268;2023-04-15T18:48:52;1.09;;;0.40;;
17741;SDS011;8993;51.822;-2.268;2023-04-15T18:53:56;1.62;;;0.65;;
17741;SDS011;8993;51.822;-2.268;2023-04-15T18:59:01;2.18;;;0.76;;
17741;SDS011;8993;51.822;-2.268;2023-04-15T19:04:06;1.77;;;0.83;;
17741;SDS011;8993;51.822;-2.268;2023-04-15T19:09:11;3.06;;;0.95;;
17741;SDS011;8993;51.822;-2.268;2023-04-15T19:14:15;8.04;;;5.66;;
17741;SDS011;8993;51.822;-2.268;2023-04-15T19:19:20;4.21;;;1.99;;
17741;SDS011;8993;51.822;-2.268;2023-04-15T19:24:24;2.55;;;1.29;;
17741;SDS011;8993;51.822;-2.268;2023-04-15T19:29:29;3.78;;;1.88;;
17741;SDS011;8993;51.822;-2.268;2023-04-15T19:34:33;3.75;;;1.78;;
17741;SDS011;8993;51.822;-2.268;2023-04-15T19:39:41;3.69;;;1.63;;
17741;SDS011;8993;51.822;-2.268;2023-04-15T19:44:56;5.13;;;2.36;;
17741;SDS011;8993;51.822;-2.268;2023-04-15T19:49:51;11.15;;;6.84;;
17741;SDS011;8993;51.822;-2.268;2023-04-15T19:54:56;6.75;;;3.60;;
17741;SDS011;8993;51.822;-2.268;2023-04-15T20:00:07;4.10;;;1.88;;
17741;SDS011;8993;51.822;-2.268;2023-04-15T20:05:06;4.05;;;1.99;;
17741;SDS011;8993;51.822;-2.268;2023-04-15T20:10:10;3.41;;;1.87;;
17741;SDS011;8993;51.822;-2.268;2023-04-15T20:15:15;4.63;;;2.35;;
17741;SDS011;8993;51.822;-2.268;2023-04-15T20:20:23;4.21;;;2.11;;
17741;SDS011;8993;51.822;-2.268;2023-04-15T20:25:33;10.60;;;4.05;;
17741;SDS011;8993;51.822;-2.268;2023-04-15T20:30:28;8.52;;;3.35;;
17741;SDS011;8993;51.822;-2.268;2023-04-15T20:35:36;6.88;;;3.08;;
17741;SDS011;8993;51.822;-2.268;2023-04-15T20:40:40;12.24;;;4.58;;
17741;SDS011;8993;51.822;-2.268;2023-04-15T20:45:46;11.05;;;4.14;;
17741;SDS011;8993;51.822;-2.268;2023-04-15T20:50:51;7.84;;;3.22;;
17741;SDS011;8993;51.822;-2.268;2023-04-15T20:55:57;7.35;;;2.84;;
17741;SDS011;8993;51.822;-2.268;2023-04-15T21:01:03;4.58;;;2.33;;
17741;SDS011;8993;51.822;-2.268;2023-04-15T21:06:06;29.12;;;10.35;;
17741;SDS011;8993;51.822;-2.268;2023-04-15T21:11:11;16.13;;;6.65;;
17741;SDS011;8993;51.822;-2.268;2023-04-15T21:16:16;14.70;;;5.51;;
17741;SDS011;8993;51.822;-2.268;2023-04-15T21:21:21;16.68;;;5.87;;
17741;SDS011;8993;51.822;-2.268;2023-04-15T21:26:27;11.81;;;5.10;;
17741;SDS011;8993;51.822;-2.268;2023-04-15T21:31:32;10.19;;;3.58;;
17741;SDS011;8993;51.822;-2.268;2023-04-15T21:36:37;7.04;;;2.69;;
17741;SDS011;8993;51.822;-2.268;2023-04-15T21:41:43;6.77;;;3.07;;
17741;SDS011;8993;51.822;-2.268;2023-04-15T21:46:47;6.42;;;2.90;;
17741;SDS011;8993;51.822;-2.268;2023-04-15T21:51:53;6.34;;;2.80;;
17741;SDS011;8993;51.822;-2.268;2023-04-15T21:57:00;8.61;;;4.29;;
17741;SDS011;8993;51.822;-2.268;2023-04-15T22:02:05;10.82;;;4.59;;
17741;SDS011;8993;51.822;-2.268;2023-04-15T22:07:10;7.37;;;3.48;;
17741;SDS011;8993;51.822;-2.268;2023-04-15T22:12:14;6.72;;;3.15;;
17741;SDS011;8993;51.822;-2.268;2023-04-15T22:17:19;8.00;;;3.58;;
17741;SDS011;8993;51.822;-2.268;2023-04-15T22:22:23;7.96;;;3.52;;
17741;SDS011;8993;51.822;-2.268;2023-04-15T22:27:28;6.92;;;3.41;;
17741;SDS011;8993;51.822;-2.268;2023-04-15T22:32:33;7.62;;;3.51;;
17741;SDS011;8993;51.822;-2.268;2023-04-15T22:37:40;8.78;;;3.53;;
17741;SDS011;8993;51.822;-2.268;2023-04-15T22:42:44;6.46;;;3.32;;
17741;SDS011;8993;51.822;-2.268;2023-04-15T22:47:51;6.50;;;3.38;;
17741;SDS011;8993;51.822;-2.268;2023-04-15T22:58:02;5.77;;;2.82;;
17741;SDS011;8993;51.822;-2.268;2023-04-15T23:03:10;6.81;;;3.30;;
17741;SDS011;8993;51.822;-2.268;2023-04-15T23:08:17;4.43;;;2.42;;
17741;SDS011;8993;51.822;-2.268;2023-04-15T23:13:22;5.92;;;2.49;;
17741;SDS011;8993;51.822;-2.268;2023-04-15T23:18:29;5.18;;;2.19;;
17741;SDS011;8993;51.822;-2.268;2023-04-15T23:23:33;6.27;;;2.56;;
17741;SDS011;8993;51.822;-2.268;2023-04-15T23:28:40;6.47;;;3.18;;
17741;SDS011;8993;51.822;-2.268;2023-04-15T23:33:46;7.96;;;3.55;;
17741;SDS011;8993;51.822;-2.268;2023-04-15T23:38:53;7.16;;;3.64;;
17741;SDS011;8993;51.822;-2.268;2023-04-15T23:43:57;7.67;;;3.35;;
17741;SDS011;8993;51.822;-2.268;2023-04-15T23:49:02;6.56;;;3.05;;
17741;SDS011;8993;51.822;-2.268;2023-04-15T23:54:09;5.82;;;3.01;;
17741;SDS011;8993;51.822;-2.268;2023-04-15T23:59:13;6.66;;;2.98;;
